Rochester Hills, MI (48306)

7:51 AM EDT on August 26, 2016 (GMT -0400)
Oak Arbor | | Change Station

Elev 909 ft 42.73 °N, 83.14 °W | Updated 15 seconds ago

Clear
Clear
62.2 °F
Feels Like 62.2 °F
N
0.2
Wind Variable Wind from West
Gusts 2.5 mph

Today
High -- | Low -- °F
--% Chance of Precip.
Yesterday
High -- | Low -- °F
Precip. -- in
Pressure 30.13 in
Visibility 10.0 miles
Clouds Clear
Dew Point 61 °F
Humidity 97%
Rainfall 0.00 in
Snow Depth Not available.
6:51 AM 8:16 PM
Waning Crescent, 35% visible
METAR KVLL 261135Z AUTO 27005KT 10SM CLR 19/16 A3013 RMK AO2 T01920160
Pressure 30.13 in
Visibility 10.0 miles
Clouds Clear
Dew Point 61 °F
Humidity 97%
Rainfall 0.00 in
Snow Depth Not available.
6:51 AM 8:16 PM
Waning Crescent, 35% visible
METAR KVLL 261135Z AUTO 27005KT 10SM CLR 19/16 A3013 RMK AO2 T01920160

10-Day Weather Forecast

Almanac

Astronomy

Aug. 26, 2016 Rise Set
Actual Time
Civil Twilight
Nautical Twilight
Astronomical Twilight
Moon
Length of Visible Light
Length of Day
Tomorrow will be .
, % of the Moon is Illuminated

Today's Extremes

State Highs State Lows

Community

WunderPhotos

Upload Photos

1,935,071 photos uploaded!

WunderBlog® & News

Nearby

Air Quality

  Air Quality AQ Index Pollutant
Not available.

Snow Depth

Station Depth Elevation

Earthquake Activity

City Distance Mag. Time & Date
Minimum magnitude displayed is 2.5.

Coastal Water Temperatures

Place Temperature

Stations

Nearby Weather Stations

Station Location Temp. Windchill Dew Point Humidity Wind Precip. Elev Updated Type
                   

Watches & Warnings

There are currently no watches in effect.